createdAt,value
2023-12-20T00:01:17.557Z,7.97
2023-12-20T00:03:45.270Z,8.20
2023-12-20T00:06:13.140Z,8.30
2023-12-20T00:08:40.832Z,7.18
2023-12-20T00:11:08.456Z,7.38
2023-12-20T00:13:36.023Z,7.00
2023-12-20T00:16:04.070Z,6.15
2023-12-20T00:18:31.666Z,6.70
2023-12-20T00:20:59.241Z,7.07
2023-12-20T00:23:26.827Z,6.75
2023-12-20T00:25:54.455Z,6.57
2023-12-20T00:28:21.996Z,7.28
2023-12-20T00:30:49.645Z,7.05
2023-12-20T00:33:17.677Z,7.47
2023-12-20T00:35:45.286Z,7.45
2023-12-20T00:38:12.970Z,7.07
2023-12-20T00:40:40.944Z,6.47
2023-12-20T00:43:08.815Z,7.78
2023-12-20T00:45:36.494Z,7.80
2023-12-20T00:48:04.556Z,7.57
2023-12-20T00:50:32.244Z,8.20
2023-12-20T00:53:02.068Z,7.55
2023-12-20T00:55:29.579Z,8.50
2023-12-20T00:57:57.479Z,7.47
2023-12-20T01:00:25.042Z,8.18
2023-12-20T01:02:53.166Z,6.40
2023-12-20T01:05:20.807Z,7.25
2023-12-20T01:07:48.715Z,8.20
2023-12-20T01:10:16.405Z,7.80
2023-12-20T01:12:45.484Z,7.53
2023-12-20T01:15:13.156Z,6.90
2023-12-20T01:17:41.647Z,8.93
2023-12-20T01:20:09.551Z,7.90
2023-12-20T01:22:37.445Z,8.93
2023-12-20T01:25:05.336Z,8.15
2023-12-20T01:27:33.019Z,8.82
2023-12-20T01:30:00.860Z,7.80
2023-12-20T01:32:28.475Z,7.10
2023-12-20T01:35:02.407Z,7.65
2023-12-20T01:37:31.184Z,8.65
2023-12-20T01:40:00.754Z,8.82
2023-12-20T01:42:28.288Z,9.10
2023-12-20T01:44:56.006Z,9.20
2023-12-20T01:47:23.913Z,8.95
2023-12-20T01:49:51.921Z,7.78
2023-12-20T01:52:23.216Z,7.70
2023-12-20T01:54:51.237Z,8.65
2023-12-20T01:57:19.067Z,8.80
2023-12-20T01:59:46.786Z,10.80
2023-12-20T02:02:15.086Z,8.93
2023-12-20T02:04:42.804Z,9.70
2023-12-20T02:07:11.575Z,9.32
2023-12-20T02:09:41.003Z,8.77
2023-12-20T02:12:09.511Z,7.97
2023-12-20T02:14:37.165Z,8.82
2023-12-20T02:17:07.532Z,9.15
2023-12-20T02:19:35.759Z,9.05
2023-12-20T02:22:15.304Z,8.35
2023-12-20T02:24:43.036Z,8.30
2023-12-20T02:27:11.986Z,7.20
2023-12-20T02:29:39.785Z,7.88
2023-12-20T02:32:08.327Z,7.85
2023-12-20T02:34:39.130Z,8.48
2023-12-20T02:37:07.078Z,7.20
2023-12-20T02:39:37.666Z,7.05
2023-12-20T02:42:05.351Z,7.13
2023-12-20T02:44:33.195Z,6.50
2023-12-20T02:47:00.784Z,6.47
2023-12-20T02:49:28.542Z,6.53
2023-12-20T02:51:56.242Z,7.13
2023-12-20T02:54:23.946Z,6.90
2023-12-20T02:56:51.809Z,7.10
2023-12-20T02:59:19.737Z,7.93
2023-12-20T03:01:47.926Z,7.40
2023-12-20T03:04:15.930Z,7.43
2023-12-20T03:06:43.835Z,7.63
2023-12-20T03:09:11.449Z,6.43
2023-12-20T03:11:38.964Z,6.72
2023-12-20T03:14:06.553Z,6.80
2023-12-20T03:16:36.661Z,7.13
2023-12-20T03:19:05.154Z,7.10
2023-12-20T03:21:32.753Z,7.10
2023-12-20T03:24:00.600Z,6.35
2023-12-20T03:26:28.141Z,5.65
2023-12-20T03:28:55.803Z,6.03
2023-12-20T03:31:23.595Z,7.10
2023-12-20T03:33:53.448Z,7.10
2023-12-20T03:36:21.819Z,6.18
2023-12-20T03:38:49.739Z,6.57
2023-12-20T03:41:17.452Z,7.03
2023-12-20T03:43:44.964Z,9.07
2023-12-20T03:46:13.020Z,9.18
2023-12-20T03:48:40.717Z,9.63
2023-12-20T03:51:08.560Z,10.40
2023-12-20T03:53:39.001Z,10.32
2023-12-20T03:56:09.177Z,10.85
2023-12-20T03:58:36.781Z,10.57
2023-12-20T04:01:04.539Z,10.32
2023-12-20T04:03:32.085Z,10.30
2023-12-20T04:06:01.909Z,9.90
2023-12-20T04:08:29.659Z,10.07
2023-12-20T04:10:57.208Z,10.88
2023-12-20T04:13:25.043Z,9.70
2023-12-20T04:15:55.071Z,9.10
2023-12-20T04:18:23.142Z,8.80
2023-12-20T04:20:51.121Z,10.18
2023-12-20T04:23:18.689Z,9.65
2023-12-20T04:25:46.433Z,9.25
2023-12-20T04:28:14.103Z,8.98
2023-12-20T04:30:41.844Z,8.30
2023-12-20T04:33:09.544Z,8.13
2023-12-20T04:35:37.147Z,9.15
2023-12-20T04:38:05.123Z,8.02
2023-12-20T04:40:33.763Z,8.27
2023-12-20T04:43:01.667Z,9.13
2023-12-20T04:45:29.469Z,8.30
2023-12-20T04:47:57.419Z,7.75
2023-12-20T04:50:25.399Z,7.60
2023-12-20T04:52:53.348Z,7.50
2023-12-20T04:55:21.276Z,7.85
2023-12-20T04:58:12.103Z,7.40
2023-12-20T05:00:39.961Z,6.65
2023-12-20T05:03:10.643Z,6.25
2023-12-20T05:06:24.123Z,6.32
2023-12-20T05:08:51.672Z,7.03
2023-12-20T05:11:19.260Z,7.00
2023-12-20T05:13:50.433Z,6.85
2023-12-20T05:21:35.811Z,7.03
2023-12-20T05:24:03.426Z,7.43
2023-12-20T05:26:37.978Z,6.72
2023-12-20T05:29:05.587Z,7.18
2023-12-20T05:31:33.319Z,7.07
2023-12-20T05:34:00.994Z,7.10
2023-12-20T05:41:40.910Z,7.07
2023-12-20T05:44:08.421Z,5.88
2023-12-20T05:46:55.827Z,6.47
2023-12-20T05:49:25.317Z,6.35
2023-12-20T05:51:53.061Z,7.35
2023-12-20T05:54:20.706Z,7.22
2023-12-20T05:57:40.285Z,6.55
2023-12-20T06:00:08.943Z,7.65
2023-12-20T06:02:45.315Z,7.43
2023-12-20T06:05:13.527Z,7.50
2023-12-20T06:07:41.722Z,6.78
2023-12-20T06:10:09.680Z,7.82
2023-12-20T06:12:37.841Z,7.70
2023-12-20T06:15:05.729Z,8.60
2023-12-20T06:17:37.952Z,6.90
2023-12-20T06:20:09.228Z,8.38
2023-12-20T06:22:37.576Z,9.50
2023-12-20T06:25:05.888Z,10.27
2023-12-20T06:28:15.667Z,9.02
2023-12-20T06:30:43.423Z,10.20
2023-12-20T06:33:12.714Z,8.95
2023-12-20T06:35:40.390Z,9.35
2023-12-20T06:38:07.892Z,8.77
2023-12-20T06:40:35.844Z,9.02
2023-12-20T06:43:09.180Z,8.80
2023-12-20T06:45:44.398Z,10.82
2023-12-20T06:48:14.436Z,10.20
2023-12-20T06:50:45.262Z,10.43
2023-12-20T06:53:13.480Z,10.43
2023-12-20T06:55:41.000Z,10.75
2023-12-20T06:58:08.592Z,11.07
2023-12-20T07:00:36.521Z,10.10
2023-12-20T07:03:04.878Z,10.57
2023-12-20T07:06:39.069Z,10.25
2023-12-20T07:09:06.702Z,10.07
2023-12-20T07:11:34.667Z,10.98
2023-12-20T07:14:02.475Z,9.80
2023-12-20T07:16:34.657Z,9.90
2023-12-20T07:19:02.304Z,10.07
2023-12-20T07:21:29.801Z,11.05
2023-12-20T07:23:59.583Z,10.52
2023-12-20T07:26:27.388Z,10.55
2023-12-20T07:28:55.121Z,10.73
2023-12-20T07:31:22.881Z,9.98
2023-12-20T07:33:52.241Z,10.07
2023-12-20T07:36:39.112Z,10.80
2023-12-20T07:39:06.847Z,9.95
2023-12-20T07:41:34.363Z,9.38
2023-12-20T07:44:02.460Z,12.13
2023-12-20T07:46:30.477Z,10.20
2023-12-20T07:48:58.190Z,9.38
2023-12-20T07:51:25.795Z,9.75
2023-12-20T07:53:56.533Z,8.23
2023-12-20T07:56:24.137Z,9.10
2023-12-20T07:58:53.573Z,8.23
2023-12-20T08:01:23.051Z,8.60
2023-12-20T08:03:52.503Z,8.05
2023-12-20T08:06:21.844Z,32.08
2023-12-20T08:08:58.721Z,30.60
2023-12-20T08:11:31.501Z,25.65
2023-12-20T08:13:59.797Z,22.58
2023-12-20T08:16:27.385Z,18.00
2023-12-20T08:18:55.505Z,11.05
2023-12-20T08:21:24.203Z,11.20
2023-12-20T08:23:51.740Z,11.93
2023-12-20T08:26:25.529Z,11.05
2023-12-20T08:28:53.251Z,10.73
2023-12-20T08:31:21.219Z,11.18
2023-12-20T08:33:55.951Z,11.15
2023-12-20T08:36:27.342Z,11.68
2023-12-20T08:38:56.700Z,11.65
2023-12-20T08:41:24.214Z,11.25
2023-12-20T08:43:52.281Z,11.20
2023-12-20T08:46:19.889Z,11.90
2023-12-20T08:48:47.669Z,11.50
2023-12-20T08:51:15.581Z,10.80
2023-12-20T08:53:43.220Z,11.43
2023-12-20T08:56:10.799Z,10.82
2023-12-20T08:58:38.357Z,11.20
2023-12-20T09:01:06.132Z,12.65
2023-12-20T09:03:33.952Z,12.13
2023-12-20T09:06:01.583Z,11.60
2023-12-20T09:08:29.069Z,12.13
2023-12-20T09:10:56.575Z,11.70
2023-12-20T09:13:29.395Z,12.23
2023-12-20T09:15:57.852Z,11.82
2023-12-20T09:18:26.508Z,10.77
2023-12-20T09:20:54.405Z,10.80
2023-12-20T09:23:22.061Z,11.57
2023-12-20T09:25:49.602Z,11.65
2023-12-20T09:28:17.536Z,12.15
2023-12-20T09:30:47.349Z,11.90
2023-12-20T09:33:15.865Z,12.50
2023-12-20T09:35:44.242Z,13.15
2023-12-20T09:38:12.256Z,13.40
2023-12-20T09:40:43.543Z,12.68
2023-12-20T09:43:15.934Z,11.82
2023-12-20T09:45:48.414Z,13.20
2023-12-20T09:48:20.183Z,13.70
2023-12-20T09:50:52.590Z,13.77
2023-12-20T09:53:27.295Z,15.93
2023-12-20T09:55:58.829Z,19.15
2023-12-20T09:58:26.466Z,13.75
2023-12-20T10:00:55.432Z,13.57
2023-12-20T10:41:09.465Z,13.35
2023-12-20T10:43:41.681Z,13.43
2023-12-20T10:46:09.907Z,14.05
2023-12-20T10:48:40.669Z,15.07
2023-12-20T10:51:10.740Z,14.35
2023-12-20T10:53:51.424Z,14.77
2023-12-20T10:56:24.070Z,14.45
2023-12-20T10:58:53.315Z,14.00
2023-12-20T11:01:31.016Z,14.73
2023-12-20T11:03:59.530Z,14.80
2023-12-20T11:06:52.804Z,13.98
2023-12-20T11:09:23.247Z,14.25
2023-12-20T11:12:23.663Z,16.00
2023-12-20T11:15:04.844Z,14.75
2023-12-20T11:17:33.991Z,14.75
2023-12-20T11:20:03.029Z,15.43
2023-12-20T11:22:37.087Z,16.73
2023-12-20T11:25:11.813Z,16.00
2023-12-20T11:27:44.960Z,16.15
2023-12-20T11:30:15.366Z,16.57
2023-12-20T11:32:44.387Z,16.38
2023-12-20T11:35:12.573Z,14.63
2023-12-20T11:37:44.431Z,16.02
2023-12-20T11:40:18.140Z,14.48
2023-12-20T11:42:49.495Z,14.57
2023-12-20T11:45:21.113Z,15.13
2023-12-20T11:47:51.748Z,16.65
2023-12-20T11:50:20.716Z,16.38
2023-12-20T11:52:49.370Z,16.48
2023-12-20T11:55:20.086Z,15.38
2023-12-20T11:57:47.841Z,16.10
2023-12-20T12:00:18.882Z,14.70
2023-12-20T12:03:05.041Z,16.15
2023-12-20T12:05:33.655Z,16.08
2023-12-20T12:11:58.816Z,17.20
2023-12-20T12:14:26.767Z,17.17
2023-12-20T12:16:54.702Z,16.95
2023-12-20T12:19:28.012Z,15.85
2023-12-20T12:22:13.760Z,16.40
2023-12-20T12:24:46.326Z,17.70
2023-12-20T12:27:18.220Z,17.52
2023-12-20T12:30:08.424Z,18.10
2023-12-20T12:32:37.088Z,16.70
2023-12-20T12:35:07.498Z,18.38
2023-12-20T12:37:53.943Z,17.67
2023-12-20T12:40:21.881Z,17.83
2023-12-20T12:42:49.905Z,16.92
2023-12-20T12:45:17.570Z,15.73
2023-12-20T12:47:47.439Z,17.27
2023-12-20T12:50:15.389Z,17.88
2023-12-20T12:52:43.131Z,17.83
2023-12-20T12:55:10.666Z,18.10
2023-12-20T12:57:38.552Z,17.73
2023-12-20T13:00:09.550Z,17.73
2023-12-20T13:02:38.986Z,17.33
2023-12-20T13:05:07.408Z,17.85
2023-12-20T13:07:35.611Z,19.80
2023-12-20T13:10:03.567Z,18.90
2023-12-20T13:12:31.227Z,19.23
2023-12-20T13:14:59.204Z,19.58
2023-12-20T13:17:28.934Z,19.45
2023-12-20T13:19:58.018Z,17.65
2023-12-20T13:22:25.724Z,16.58
2023-12-20T13:24:53.279Z,16.60
2023-12-20T13:27:21.183Z,17.80
2023-12-20T13:29:49.049Z,18.92
2023-12-20T13:32:16.969Z,19.20
2023-12-20T13:34:45.016Z,19.40
2023-12-20T13:37:13.081Z,19.85
2023-12-20T13:39:42.299Z,19.38
2023-12-20T13:42:12.924Z,19.08
2023-12-20T13:44:40.714Z,18.73
2023-12-20T13:47:09.056Z,19.50
2023-12-20T13:49:36.717Z,20.15
2023-12-20T13:52:06.086Z,20.02
2023-12-20T13:54:34.780Z,21.02
2023-12-20T13:57:09.521Z,21.60
2023-12-20T13:59:44.490Z,21.83
2023-12-20T14:02:12.388Z,21.70
2023-12-20T14:04:43.924Z,22.42
2023-12-20T14:07:13.257Z,21.48
2023-12-20T14:09:47.158Z,22.33
2023-12-20T14:12:15.775Z,22.02
2023-12-20T14:14:43.356Z,20.90
2023-12-20T14:17:11.012Z,22.58
2023-12-20T14:19:38.620Z,21.92
2023-12-20T14:22:06.376Z,22.33
2023-12-20T14:24:33.931Z,21.38
2023-12-20T14:27:01.445Z,23.23
2023-12-20T14:29:28.976Z,22.98
2023-12-20T14:31:56.563Z,24.70
2023-12-20T14:34:25.733Z,23.80
2023-12-20T14:36:54.206Z,22.10
2023-12-20T14:39:22.417Z,21.80
2023-12-20T14:41:50.444Z,21.70
2023-12-20T14:44:18.891Z,21.10
2023-12-20T14:46:46.448Z,21.45
2023-12-20T14:49:15.638Z,21.05
2023-12-20T14:51:45.577Z,22.48
2023-12-20T14:54:18.264Z,22.63
2023-12-20T14:56:45.757Z,22.63
2023-12-20T14:59:13.719Z,24.65
2023-12-20T15:01:45.500Z,23.58
2023-12-20T15:04:13.886Z,23.10
2023-12-20T15:06:41.953Z,22.88
2023-12-20T15:09:12.997Z,24.73
2023-12-20T15:11:40.743Z,24.40
2023-12-20T15:14:08.971Z,25.08
2023-12-20T15:16:36.957Z,24.20
2023-12-20T15:19:04.777Z,24.67
2023-12-20T15:21:34.842Z,24.17
2023-12-20T15:24:14.610Z,23.50
2023-12-20T15:26:43.718Z,23.05
2023-12-20T15:29:13.762Z,22.17
2023-12-20T15:31:45.757Z,20.98
2023-12-20T15:34:14.732Z,22.38
2023-12-20T15:36:43.134Z,21.48
2023-12-20T15:39:10.753Z,21.20
2023-12-20T15:41:38.635Z,21.00
2023-12-20T15:44:06.306Z,21.60
2023-12-20T15:46:34.776Z,20.58
2023-12-20T15:49:02.600Z,20.25
2023-12-20T15:51:30.359Z,21.08
2023-12-20T15:53:58.637Z,22.25
2023-12-20T15:56:26.157Z,22.10
2023-12-20T15:58:56.106Z,22.67
2023-12-20T16:01:23.717Z,22.30
2023-12-20T16:03:56.710Z,24.77
2023-12-20T16:06:28.743Z,22.98
2023-12-20T16:09:00.217Z,21.48
2023-12-20T16:11:29.386Z,21.52
2023-12-20T16:13:57.046Z,20.35
2023-12-20T16:16:24.918Z,19.65
2023-12-20T16:18:52.615Z,18.95
2023-12-20T16:21:22.908Z,19.05
2023-12-20T16:23:50.699Z,17.27
2023-12-20T16:26:18.222Z,16.30
2023-12-20T16:28:45.779Z,18.30
2023-12-20T16:31:14.402Z,18.35
2023-12-20T16:33:42.095Z,16.52
2023-12-20T16:36:09.628Z,16.15
2023-12-20T16:38:37.808Z,16.48
2023-12-20T16:41:05.482Z,16.70
2023-12-20T16:43:33.218Z,16.60
2023-12-20T16:46:03.219Z,15.63
2023-12-20T16:48:32.245Z,14.82
2023-12-20T16:50:59.806Z,14.68
2023-12-20T16:53:27.715Z,13.07
2023-12-20T16:55:55.309Z,13.85
2023-12-20T16:58:22.913Z,14.55
2023-12-20T17:00:51.911Z,14.13
2023-12-20T17:03:23.420Z,15.07
2023-12-20T17:05:51.004Z,15.48
2023-12-20T17:08:18.516Z,14.48
2023-12-20T17:10:46.956Z,14.45
2023-12-20T17:13:14.639Z,13.50
2023-12-20T17:15:42.606Z,12.43
2023-12-20T17:18:10.731Z,13.48
2023-12-20T17:20:38.384Z,13.25
2023-12-20T17:23:05.822Z,11.60
2023-12-20T17:25:35.805Z,10.48
2023-12-20T17:28:04.764Z,11.75
2023-12-20T17:30:32.321Z,10.80
2023-12-20T17:33:00.162Z,11.63
2023-12-20T17:35:28.063Z,15.07
2023-12-20T17:37:55.722Z,13.02
2023-12-20T17:40:23.311Z,12.13
2023-12-20T17:42:50.874Z,13.45
2023-12-20T17:45:18.433Z,14.27
2023-12-20T17:47:46.402Z,12.80
2023-12-20T17:50:15.435Z,12.65
2023-12-20T17:52:43.193Z,13.05
2023-12-20T17:55:10.988Z,12.68
2023-12-20T17:57:39.284Z,12.43
2023-12-20T18:00:19.818Z,13.25
2023-12-20T18:02:52.101Z,15.40
2023-12-20T18:05:21.334Z,14.88
2023-12-20T18:07:50.068Z,13.70
2023-12-20T18:10:18.018Z,14.45
2023-12-20T18:12:46.121Z,15.63
2023-12-20T18:15:15.417Z,16.30
2023-12-20T18:17:43.456Z,14.25
2023-12-20T18:20:11.760Z,13.57
2023-12-20T18:22:42.825Z,13.80
2023-12-20T18:25:10.766Z,12.57
2023-12-20T18:27:38.482Z,14.52
2023-12-20T18:30:15.182Z,13.02
2023-12-20T18:32:45.072Z,13.18
2023-12-20T18:35:13.491Z,12.65
2023-12-20T18:37:41.415Z,12.60
2023-12-20T18:40:09.649Z,13.52
2023-12-20T18:42:37.501Z,12.68
2023-12-20T18:45:05.794Z,11.90
2023-12-20T18:47:35.938Z,11.63
2023-12-20T18:50:06.576Z,12.82
2023-12-20T18:52:34.335Z,11.50
2023-12-20T18:55:01.922Z,11.35
2023-12-20T18:57:29.555Z,11.95
2023-12-20T18:59:57.291Z,11.93
2023-12-20T19:02:25.459Z,12.27
2023-12-20T19:04:53.193Z,13.77
2023-12-20T19:07:20.978Z,13.60
2023-12-20T19:09:48.640Z,15.00
2023-12-20T19:12:17.718Z,14.50
2023-12-20T19:14:48.290Z,11.70
2023-12-20T19:17:15.865Z,12.07
2023-12-20T19:19:43.587Z,11.95
2023-12-20T19:22:11.207Z,13.98
2023-12-20T19:24:38.842Z,15.90
2023-12-20T19:27:06.400Z,13.60
2023-12-20T19:29:34.260Z,15.38
2023-12-20T19:32:01.887Z,9.90
2023-12-20T19:34:29.867Z,11.85
2023-12-20T19:36:57.725Z,11.05
2023-12-20T19:39:25.321Z,12.07
2023-12-20T19:41:53.186Z,13.73
2023-12-20T19:44:22.331Z,13.15
2023-12-20T19:46:50.664Z,11.95
2023-12-20T19:49:18.370Z,12.00
2023-12-20T19:51:46.013Z,12.82
2023-12-20T19:54:13.769Z,15.32
2023-12-20T19:56:41.435Z,13.25
2023-12-20T19:59:08.944Z,16.38
2023-12-20T20:01:40.457Z,16.23
2023-12-20T20:04:11.034Z,14.18
2023-12-20T20:06:39.025Z,15.85
2023-12-20T20:09:06.792Z,14.35
2023-12-20T20:11:35.785Z,14.60
2023-12-20T20:14:03.906Z,13.88
2023-12-20T20:16:31.814Z,14.07
2023-12-20T20:18:59.536Z,12.90
2023-12-20T20:21:27.753Z,11.00
2023-12-20T20:23:55.427Z,11.35
2023-12-20T20:26:23.003Z,14.05
2023-12-20T20:28:51.761Z,14.85
2023-12-20T20:31:19.600Z,17.25
2023-12-20T20:33:47.348Z,15.95
2023-12-20T20:36:14.884Z,16.10
2023-12-20T20:38:42.518Z,15.02
2023-12-20T20:41:10.078Z,15.98
2023-12-20T20:43:37.826Z,15.55
2023-12-20T20:46:06.836Z,13.13
2023-12-20T20:48:44.362Z,14.82
2023-12-20T20:51:18.368Z,14.20
2023-12-20T20:53:46.113Z,13.57
2023-12-20T20:56:13.895Z,14.10
2023-12-20T20:58:41.480Z,10.82
2023-12-20T21:01:09.239Z,10.55
2023-12-20T21:03:36.868Z,10.45
2023-12-20T21:06:05.078Z,10.93
2023-12-20T21:08:32.988Z,12.32
2023-12-20T21:11:03.226Z,11.55
2023-12-20T21:13:31.309Z,13.30
2023-12-20T21:16:00.351Z,10.05
2023-12-20T21:18:29.323Z,10.73
2023-12-20T21:20:57.458Z,8.30
2023-12-20T21:23:25.045Z,9.60
2023-12-20T21:25:52.606Z,8.77
2023-12-20T21:28:22.410Z,12.05
2023-12-20T21:30:50.640Z,13.00
2023-12-20T21:33:18.471Z,12.85
2023-12-20T21:35:46.089Z,11.50
2023-12-20T21:38:13.789Z,10.00
2023-12-20T21:40:41.392Z,13.18
2023-12-20T21:43:09.655Z,14.30
2023-12-20T21:45:38.035Z,14.30
2023-12-20T21:48:07.264Z,15.93
2023-12-20T21:50:35.274Z,14.55
2023-12-20T21:53:03.144Z,13.77
2023-12-20T21:55:32.735Z,14.75
2023-12-20T21:58:00.345Z,14.63
2023-12-20T22:00:28.451Z,14.15
2023-12-20T22:02:59.122Z,13.60
2023-12-20T22:05:26.681Z,13.27
2023-12-20T22:07:54.672Z,13.55
2023-12-20T22:10:22.324Z,12.90
2023-12-20T22:12:49.853Z,13.32
2023-12-20T22:15:17.521Z,11.88
2023-12-20T22:17:45.444Z,11.55
2023-12-20T22:20:13.422Z,11.65
2023-12-20T22:22:41.074Z,10.18
2023-12-20T22:25:08.953Z,11.32
2023-12-20T22:27:36.554Z,11.45
2023-12-20T22:30:07.611Z,11.73
2023-12-20T22:32:35.505Z,11.80
2023-12-20T22:35:04.311Z,12.35
2023-12-20T22:37:32.013Z,12.05
2023-12-20T22:39:59.797Z,13.10
2023-12-20T22:42:27.444Z,11.07
2023-12-20T22:44:56.201Z,11.23
2023-12-20T22:47:25.343Z,11.68
2023-12-20T22:49:55.925Z,11.02
2023-12-20T22:52:23.835Z,11.00
2023-12-20T22:54:51.757Z,10.63
2023-12-20T22:57:19.449Z,9.98
2023-12-20T22:59:47.838Z,9.57
2023-12-20T23:02:17.924Z,8.90
2023-12-20T23:04:45.540Z,10.23
2023-12-20T23:07:13.233Z,9.93
2023-12-20T23:09:40.913Z,8.52
2023-12-20T23:12:09.226Z,9.82
2023-12-20T23:14:36.888Z,8.35
2023-12-20T23:17:06.813Z,8.48
2023-12-20T23:19:34.787Z,9.20
2023-12-20T23:22:02.647Z,11.10
2023-12-20T23:24:30.310Z,9.45
2023-12-20T23:26:57.864Z,9.70
2023-12-20T23:29:25.615Z,10.52
2023-12-20T23:31:53.287Z,10.35
2023-12-20T23:34:20.956Z,10.93
2023-12-20T23:36:48.501Z,10.60
2023-12-20T23:39:16.251Z,14.32
2023-12-20T23:41:43.934Z,17.10
2023-12-20T23:44:11.579Z,15.32
2023-12-20T23:46:43.382Z,15.27
2023-12-20T23:49:11.340Z,14.13
2023-12-20T23:51:39.122Z,13.55
2023-12-20T23:54:09.608Z,12.73
2023-12-20T23:56:39.046Z,14.52
2023-12-20T23:59:07.286Z,13.70
